sensor_id;sensor_type;location;lat;lon;timestamp;P1;durP1;ratioP1;P2;durP2;ratioP2
69310;SDS011;56430;48.154;16.458;2023-08-07T00:01:17;0.75;;;0.10;;
69310;SDS011;56430;48.154;16.458;2023-08-07T00:03:44;0.97;;;0.10;;
69310;SDS011;56430;48.154;16.458;2023-08-07T00:06:11;1.70;;;0.10;;
69310;SDS011;56430;48.154;16.458;2023-08-07T00:08:38;2.05;;;0.10;;
69310;SDS011;56430;48.154;16.458;2023-08-07T00:11:05;0.52;;;0.00;;
69310;SDS011;56430;48.154;16.458;2023-08-07T00:13:32;0.60;;;0.08;;
69310;SDS011;56430;48.154;16.458;2023-08-07T00:15:59;0.83;;;0.10;;
69310;SDS011;56430;48.154;16.458;2023-08-07T00:18:27;0.85;;;0.10;;
69310;SDS011;56430;48.154;16.458;2023-08-07T00:20:54;0.70;;;0.10;;
69310;SDS011;56430;48.154;16.458;2023-08-07T00:23:21;0.90;;;0.10;;
69310;SDS011;56430;48.154;16.458;2023-08-07T00:25:47;2.33;;;0.10;;
69310;SDS011;56430;48.154;16.458;2023-08-07T00:28:14;0.70;;;0.10;;
69310;SDS011;56430;48.154;16.458;2023-08-07T00:30:41;0.60;;;0.10;;
69310;SDS011;56430;48.154;16.458;2023-08-07T00:33:08;0.65;;;0.10;;
69310;SDS011;56430;48.154;16.458;2023-08-07T00:35:36;1.35;;;0.10;;
69310;SDS011;56430;48.154;16.458;2023-08-07T00:38:03;0.80;;;0.10;;
69310;SDS011;56430;48.154;16.458;2023-08-07T00:40:35;1.00;;;0.17;;
69310;SDS011;56430;48.154;16.458;2023-08-07T00:43:02;0.80;;;0.10;;
69310;SDS011;56430;48.154;16.458;2023-08-07T00:45:29;0.93;;;0.10;;
69310;SDS011;56430;48.154;16.458;2023-08-07T00:47:56;0.93;;;0.10;;
69310;SDS011;56430;48.154;16.458;2023-08-07T00:50:23;0.65;;;0.10;;
69310;SDS011;56430;48.154;16.458;2023-08-07T00:52:52;0.77;;;0.10;;
69310;SDS011;56430;48.154;16.458;2023-08-07T00:55:19;1.70;;;0.10;;
69310;SDS011;56430;48.154;16.458;2023-08-07T00:57:46;0.85;;;0.10;;
69310;SDS011;56430;48.154;16.458;2023-08-07T01:00:13;0.60;;;0.10;;
69310;SDS011;56430;48.154;16.458;2023-08-07T01:02:41;1.23;;;0.10;;
69310;SDS011;56430;48.154;16.458;2023-08-07T01:05:09;0.73;;;0.10;;
69310;SDS011;56430;48.154;16.458;2023-08-07T01:07:36;0.70;;;0.10;;
69310;SDS011;56430;48.154;16.458;2023-08-07T01:10:04;2.58;;;0.10;;
69310;SDS011;56430;48.154;16.458;2023-08-07T01:12:33;1.08;;;0.10;;
69310;SDS011;56430;48.154;16.458;2023-08-07T01:15:02;2.45;;;0.25;;
69310;SDS011;56430;48.154;16.458;2023-08-07T01:17:30;1.10;;;0.20;;
69310;SDS011;56430;48.154;16.458;2023-08-07T01:19:59;2.65;;;0.20;;
69310;SDS011;56430;48.154;16.458;2023-08-07T01:22:27;1.00;;;0.15;;
69310;SDS011;56430;48.154;16.458;2023-08-07T01:24:54;1.15;;;0.10;;
69310;SDS011;56430;48.154;16.458;2023-08-07T01:27:24;0.85;;;0.10;;
69310;SDS011;56430;48.154;16.458;2023-08-07T01:29:54;0.87;;;0.10;;
69310;SDS011;56430;48.154;16.458;2023-08-07T01:32:24;1.55;;;0.20;;
69310;SDS011;56430;48.154;16.458;2023-08-07T01:34:52;1.20;;;0.15;;
69310;SDS011;56430;48.154;16.458;2023-08-07T01:37:21;1.48;;;0.10;;
69310;SDS011;56430;48.154;16.458;2023-08-07T01:39:50;1.20;;;0.10;;
69310;SDS011;56430;48.154;16.458;2023-08-07T01:42:17;0.90;;;0.10;;
69310;SDS011;56430;48.154;16.458;2023-08-07T01:44:44;1.00;;;0.10;;
69310;SDS011;56430;48.154;16.458;2023-08-07T01:47:11;1.85;;;0.10;;
69310;SDS011;56430;48.154;16.458;2023-08-07T01:49:38;1.50;;;0.20;;
69310;SDS011;56430;48.154;16.458;2023-08-07T01:52:06;1.00;;;0.10;;
69310;SDS011;56430;48.154;16.458;2023-08-07T01:54:33;2.13;;;0.20;;
69310;SDS011;56430;48.154;16.458;2023-08-07T01:57:02;1.15;;;0.25;;
69310;SDS011;56430;48.154;16.458;2023-08-07T01:59:28;2.35;;;0.20;;
69310;SDS011;56430;48.154;16.458;2023-08-07T02:01:55;2.38;;;0.20;;
69310;SDS011;56430;48.154;16.458;2023-08-07T02:04:22;1.30;;;0.20;;
69310;SDS011;56430;48.154;16.458;2023-08-07T02:06:49;5.07;;;0.20;;
69310;SDS011;56430;48.154;16.458;2023-08-07T02:09:16;0.90;;;0.10;;
69310;SDS011;56430;48.154;16.458;2023-08-07T02:11:42;0.95;;;0.20;;
69310;SDS011;56430;48.154;16.458;2023-08-07T02:14:11;1.45;;;0.20;;
69310;SDS011;56430;48.154;16.458;2023-08-07T02:16:37;1.83;;;0.20;;
69310;SDS011;56430;48.154;16.458;2023-08-07T02:19:04;3.17;;;0.17;;
69310;SDS011;56430;48.154;16.458;2023-08-07T02:21:31;1.70;;;0.20;;
69310;SDS011;56430;48.154;16.458;2023-08-07T02:23:58;1.38;;;0.10;;
69310;SDS011;56430;48.154;16.458;2023-08-07T02:26:25;1.08;;;0.10;;
69310;SDS011;56430;48.154;16.458;2023-08-07T02:28:51;1.20;;;0.20;;
69310;SDS011;56430;48.154;16.458;2023-08-07T02:31:20;2.93;;;0.20;;
69310;SDS011;56430;48.154;16.458;2023-08-07T02:33:46;1.25;;;0.13;;
69310;SDS011;56430;48.154;16.458;2023-08-07T02:36:13;3.35;;;0.20;;
69310;SDS011;56430;48.154;16.458;2023-08-07T02:38:40;1.00;;;0.13;;
69310;SDS011;56430;48.154;16.458;2023-08-07T02:41:07;1.10;;;0.20;;
69310;SDS011;56430;48.154;16.458;2023-08-07T02:43:34;1.20;;;0.13;;
69310;SDS011;56430;48.154;16.458;2023-08-07T02:46:00;2.60;;;0.20;;
69310;SDS011;56430;48.154;16.458;2023-08-07T02:48:28;0.98;;;0.10;;
69310;SDS011;56430;48.154;16.458;2023-08-07T02:50:55;1.42;;;0.20;;
69310;SDS011;56430;48.154;16.458;2023-08-07T02:53:22;0.80;;;0.10;;
69310;SDS011;56430;48.154;16.458;2023-08-07T02:55:49;1.30;;;0.10;;
69310;SDS011;56430;48.154;16.458;2023-08-07T02:58:16;1.05;;;0.10;;
69310;SDS011;56430;48.154;16.458;2023-08-07T03:00:42;1.40;;;0.20;;
69310;SDS011;56430;48.154;16.458;2023-08-07T03:03:09;1.50;;;0.20;;
69310;SDS011;56430;48.154;16.458;2023-08-07T03:05:38;1.10;;;0.10;;
69310;SDS011;56430;48.154;16.458;2023-08-07T03:08:04;1.37;;;0.20;;
69310;SDS011;56430;48.154;16.458;2023-08-07T03:10:31;2.45;;;0.10;;
69310;SDS011;56430;48.154;16.458;2023-08-07T03:12:58;2.10;;;0.10;;
69310;SDS011;56430;48.154;16.458;2023-08-07T03:15:25;2.30;;;0.20;;
69310;SDS011;56430;48.154;16.458;2023-08-07T03:17:52;1.83;;;0.28;;
69310;SDS011;56430;48.154;16.458;2023-08-07T03:20:18;1.90;;;0.40;;
69310;SDS011;56430;48.154;16.458;2023-08-07T03:22:47;0.93;;;0.10;;
69310;SDS011;56430;48.154;16.458;2023-08-07T03:25:13;1.67;;;0.10;;
69310;SDS011;56430;48.154;16.458;2023-08-07T03:27:40;0.90;;;0.10;;
69310;SDS011;56430;48.154;16.458;2023-08-07T03:30:07;1.02;;;0.10;;
69310;SDS011;56430;48.154;16.458;2023-08-07T03:32:46;1.00;;;0.10;;
69310;SDS011;56430;48.154;16.458;2023-08-07T03:35:13;2.00;;;0.10;;
69310;SDS011;56430;48.154;16.458;2023-08-07T03:37:40;1.00;;;0.20;;
69310;SDS011;56430;48.154;16.458;2023-08-07T03:40:09;1.55;;;0.10;;
69310;SDS011;56430;48.154;16.458;2023-08-07T03:42:36;1.27;;;0.10;;
69310;SDS011;56430;48.154;16.458;2023-08-07T03:45:03;1.00;;;0.13;;
69310;SDS011;56430;48.154;16.458;2023-08-07T03:47:30;1.20;;;0.10;;
69310;SDS011;56430;48.154;16.458;2023-08-07T03:49:56;0.60;;;0.10;;
69310;SDS011;56430;48.154;16.458;2023-08-07T03:52:23;1.20;;;0.10;;
69310;SDS011;56430;48.154;16.458;2023-08-07T03:54:50;0.95;;;0.10;;
69310;SDS011;56430;48.154;16.458;2023-08-07T03:57:18;1.30;;;0.30;;
69310;SDS011;56430;48.154;16.458;2023-08-07T03:59:45;1.13;;;0.15;;
69310;SDS011;56430;48.154;16.458;2023-08-07T04:02:12;0.82;;;0.10;;
69310;SDS011;56430;48.154;16.458;2023-08-07T04:04:39;0.82;;;0.10;;
69310;SDS011;56430;48.154;16.458;2023-08-07T04:07:05;0.93;;;0.10;;
69310;SDS011;56430;48.154;16.458;2023-08-07T04:09:33;0.70;;;0.10;;
69310;SDS011;56430;48.154;16.458;2023-08-07T04:12:00;0.80;;;0.10;;
69310;SDS011;56430;48.154;16.458;2023-08-07T04:14:28;1.13;;;0.00;;
69310;SDS011;56430;48.154;16.458;2023-08-07T04:16:55;1.73;;;0.00;;
69310;SDS011;56430;48.154;16.458;2023-08-07T04:19:22;1.00;;;0.17;;
69310;SDS011;56430;48.154;16.458;2023-08-07T04:21:49;0.67;;;0.00;;
69310;SDS011;56430;48.154;16.458;2023-08-07T04:24:15;1.90;;;0.10;;
69310;SDS011;56430;48.154;16.458;2023-08-07T04:26:42;0.80;;;0.10;;
69310;SDS011;56430;48.154;16.458;2023-08-07T04:29:09;0.85;;;0.10;;
69310;SDS011;56430;48.154;16.458;2023-08-07T04:31:37;2.42;;;0.10;;
69310;SDS011;56430;48.154;16.458;2023-08-07T04:34:04;1.20;;;0.10;;
69310;SDS011;56430;48.154;16.458;2023-08-07T04:36:31;0.77;;;0.10;;
69310;SDS011;56430;48.154;16.458;2023-08-07T04:38:58;0.65;;;0.00;;
69310;SDS011;56430;48.154;16.458;2023-08-07T04:41:24;0.75;;;0.10;;
69310;SDS011;56430;48.154;16.458;2023-08-07T04:43:51;1.10;;;0.10;;
69310;SDS011;56430;48.154;16.458;2023-08-07T04:46:18;2.33;;;0.10;;
69310;SDS011;56430;48.154;16.458;2023-08-07T04:48:46;1.83;;;0.32;;
69310;SDS011;56430;48.154;16.458;2023-08-07T04:51:14;0.70;;;0.10;;
69310;SDS011;56430;48.154;16.458;2023-08-07T04:53:41;0.77;;;0.10;;
69310;SDS011;56430;48.154;16.458;2023-08-07T04:56:08;0.97;;;0.10;;
69310;SDS011;56430;48.154;16.458;2023-08-07T04:58:34;0.50;;;0.00;;
69310;SDS011;56430;48.154;16.458;2023-08-07T05:01:01;0.70;;;0.10;;
69310;SDS011;56430;48.154;16.458;2023-08-07T05:03:28;0.57;;;0.08;;
69310;SDS011;56430;48.154;16.458;2023-08-07T05:06:00;0.50;;;0.10;;
69310;SDS011;56430;48.154;16.458;2023-08-07T05:08:27;2.17;;;0.10;;
69310;SDS011;56430;48.154;16.458;2023-08-07T05:10:54;1.00;;;0.10;;
69310;SDS011;56430;48.154;16.458;2023-08-07T05:13:21;0.50;;;0.00;;
69310;SDS011;56430;48.154;16.458;2023-08-07T05:15:47;1.90;;;0.10;;
69310;SDS011;56430;48.154;16.458;2023-08-07T05:18:15;0.28;;;0.00;;
69310;SDS011;56430;48.154;16.458;2023-08-07T05:20:41;1.13;;;0.20;;
69310;SDS011;56430;48.154;16.458;2023-08-07T05:23:10;2.03;;;0.10;;
69310;SDS011;56430;48.154;16.458;2023-08-07T05:25:37;0.57;;;0.10;;
69310;SDS011;56430;48.154;16.458;2023-08-07T05:28:04;0.40;;;0.00;;
69310;SDS011;56430;48.154;16.458;2023-08-07T05:30:31;0.52;;;0.00;;
69310;SDS011;56430;48.154;16.458;2023-08-07T05:32:58;0.63;;;0.00;;
69310;SDS011;56430;48.154;16.458;2023-08-07T05:35:25;0.52;;;0.00;;
69310;SDS011;56430;48.154;16.458;2023-08-07T05:37:52;0.52;;;0.00;;
69310;SDS011;56430;48.154;16.458;2023-08-07T05:40:20;0.40;;;0.00;;
69310;SDS011;56430;48.154;16.458;2023-08-07T05:42:47;0.40;;;0.00;;
69310;SDS011;56430;48.154;16.458;2023-08-07T05:45:14;0.30;;;0.00;;
69310;SDS011;56430;48.154;16.458;2023-08-07T05:47:41;0.82;;;0.00;;
69310;SDS011;56430;48.154;16.458;2023-08-07T05:50:08;0.60;;;0.10;;
69310;SDS011;56430;48.154;16.458;2023-08-07T05:52:35;0.38;;;0.00;;
69310;SDS011;56430;48.154;16.458;2023-08-07T05:55:02;0.93;;;0.00;;
69310;SDS011;56430;48.154;16.458;2023-08-07T05:57:30;0.43;;;0.00;;
69310;SDS011;56430;48.154;16.458;2023-08-07T05:59:57;0.30;;;0.00;;
69310;SDS011;56430;48.154;16.458;2023-08-07T06:02:24;0.30;;;0.00;;
69310;SDS011;56430;48.154;16.458;2023-08-07T06:04:52;0.65;;;0.00;;
69310;SDS011;56430;48.154;16.458;2023-08-07T06:07:19;0.28;;;0.00;;
69310;SDS011;56430;48.154;16.458;2023-08-07T06:09:46;0.40;;;0.00;;
69310;SDS011;56430;48.154;16.458;2023-08-07T06:12:13;0.30;;;0.00;;
69310;SDS011;56430;48.154;16.458;2023-08-07T06:14:41;0.30;;;0.00;;
69310;SDS011;56430;48.154;16.458;2023-08-07T06:17:08;0.20;;;0.00;;
69310;SDS011;56430;48.154;16.458;2023-08-07T06:19:35;1.10;;;0.00;;
69310;SDS011;56430;48.154;16.458;2023-08-07T06:22:02;0.60;;;0.00;;
69310;SDS011;56430;48.154;16.458;2023-08-07T06:24:29;0.40;;;0.00;;
69310;SDS011;56430;48.154;16.458;2023-08-07T06:26:55;0.45;;;0.00;;
69310;SDS011;56430;48.154;16.458;2023-08-07T06:29:22;0.30;;;0.00;;
69310;SDS011;56430;48.154;16.458;2023-08-07T06:31:51;0.40;;;0.00;;
69310;SDS011;56430;48.154;16.458;2023-08-07T06:34:17;0.20;;;0.00;;
69310;SDS011;56430;48.154;16.458;2023-08-07T06:36:44;0.50;;;0.00;;
69310;SDS011;56430;48.154;16.458;2023-08-07T06:39:11;0.40;;;0.00;;
69310;SDS011;56430;48.154;16.458;2023-08-07T06:41:38;0.40;;;0.00;;
69310;SDS011;56430;48.154;16.458;2023-08-07T06:44:05;0.40;;;0.00;;
69310;SDS011;56430;48.154;16.458;2023-08-07T06:46:32;0.40;;;0.00;;
69310;SDS011;56430;48.154;16.458;2023-08-07T06:49:00;0.57;;;0.00;;
69310;SDS011;56430;48.154;16.458;2023-08-07T06:51:27;1.95;;;0.00;;
69310;SDS011;56430;48.154;16.458;2023-08-07T06:53:53;0.40;;;0.00;;
69310;SDS011;56430;48.154;16.458;2023-08-07T06:56:20;0.50;;;0.00;;
69310;SDS011;56430;48.154;16.458;2023-08-07T06:58:47;0.93;;;0.07;;
69310;SDS011;56430;48.154;16.458;2023-08-07T07:01:14;0.65;;;0.00;;
69310;SDS011;56430;48.154;16.458;2023-08-07T07:03:41;0.40;;;0.00;;
69310;SDS011;56430;48.154;16.458;2023-08-07T07:06:12;1.92;;;0.15;;
69310;SDS011;56430;48.154;16.458;2023-08-07T07:08:39;0.68;;;0.00;;
69310;SDS011;56430;48.154;16.458;2023-08-07T07:11:06;2.27;;;0.10;;
69310;SDS011;56430;48.154;16.458;2023-08-07T07:13:33;0.70;;;0.05;;
69310;SDS011;56430;48.154;16.458;2023-08-07T07:16:00;1.25;;;0.10;;
69310;SDS011;56430;48.154;16.458;2023-08-07T07:18:27;0.80;;;0.10;;
69310;SDS011;56430;48.154;16.458;2023-08-07T07:20:57;3.20;;;0.00;;
69310;SDS011;56430;48.154;16.458;2023-08-07T07:23:27;0.93;;;0.07;;
69310;SDS011;56430;48.154;16.458;2023-08-07T07:25:53;0.73;;;0.00;;
69310;SDS011;56430;48.154;16.458;2023-08-07T07:28:20;0.73;;;0.08;;
69310;SDS011;56430;48.154;16.458;2023-08-07T07:30:48;1.02;;;0.00;;
69310;SDS011;56430;48.154;16.458;2023-08-07T07:33:15;0.70;;;0.00;;
69310;SDS011;56430;48.154;16.458;2023-08-07T07:35:42;1.23;;;0.10;;
69310;SDS011;56430;48.154;16.458;2023-08-07T07:38:09;0.60;;;0.00;;
69310;SDS011;56430;48.154;16.458;2023-08-07T07:40:38;1.02;;;0.10;;
69310;SDS011;56430;48.154;16.458;2023-08-07T07:43:04;1.55;;;0.00;;
69310;SDS011;56430;48.154;16.458;2023-08-07T07:45:31;0.40;;;0.00;;
69310;SDS011;56430;48.154;16.458;2023-08-07T07:47:59;0.90;;;0.10;;
69310;SDS011;56430;48.154;16.458;2023-08-07T07:50:26;1.13;;;0.10;;
69310;SDS011;56430;48.154;16.458;2023-08-07T07:52:53;0.55;;;0.00;;
69310;SDS011;56430;48.154;16.458;2023-08-07T07:55:19;1.60;;;0.10;;
69310;SDS011;56430;48.154;16.458;2023-08-07T07:57:48;1.45;;;0.10;;
69310;SDS011;56430;48.154;16.458;2023-08-07T08:00:15;1.27;;;0.30;;
69310;SDS011;56430;48.154;16.458;2023-08-07T08:02:42;1.00;;;0.10;;
69310;SDS011;56430;48.154;16.458;2023-08-07T08:05:09;1.98;;;0.10;;
69310;SDS011;56430;48.154;16.458;2023-08-07T08:07:37;2.80;;;0.13;;
69310;SDS011;56430;48.154;16.458;2023-08-07T08:10:05;0.85;;;0.10;;
69310;SDS011;56430;48.154;16.458;2023-08-07T08:12:32;1.40;;;0.10;;
69310;SDS011;56430;48.154;16.458;2023-08-07T08:15:00;0.45;;;0.00;;
69310;SDS011;56430;48.154;16.458;2023-08-07T08:17:27;1.05;;;0.20;;
69310;SDS011;56430;48.154;16.458;2023-08-07T08:19:54;0.90;;;0.10;;
69310;SDS011;56430;48.154;16.458;2023-08-07T08:22:21;0.77;;;0.10;;
69310;SDS011;56430;48.154;16.458;2023-08-07T08:24:47;0.63;;;0.10;;
69310;SDS011;56430;48.154;16.458;2023-08-07T08:27:14;3.83;;;0.10;;
69310;SDS011;56430;48.154;16.458;2023-08-07T08:29:42;1.77;;;0.10;;
69310;SDS011;56430;48.154;16.458;2023-08-07T08:32:11;1.55;;;0.10;;
69310;SDS011;56430;48.154;16.458;2023-08-07T08:34:39;0.50;;;0.00;;
69310;SDS011;56430;48.154;16.458;2023-08-07T08:37:06;1.63;;;0.00;;
69310;SDS011;56430;48.154;16.458;2023-08-07T08:39:33;0.65;;;0.17;;
69310;SDS011;56430;48.154;16.458;2023-08-07T08:42:00;3.17;;;0.10;;
69310;SDS011;56430;48.154;16.458;2023-08-07T08:44:27;1.23;;;0.10;;
69310;SDS011;56430;48.154;16.458;2023-08-07T08:46:56;1.00;;;0.10;;
69310;SDS011;56430;48.154;16.458;2023-08-07T08:49:28;0.80;;;0.00;;
69310;SDS011;56430;48.154;16.458;2023-08-07T08:51:57;0.80;;;0.10;;
69310;SDS011;56430;48.154;16.458;2023-08-07T08:54:24;1.65;;;0.05;;
69310;SDS011;56430;48.154;16.458;2023-08-07T08:56:51;0.70;;;0.10;;
69310;SDS011;56430;48.154;16.458;2023-08-07T08:59:19;2.47;;;0.10;;
69310;SDS011;56430;48.154;16.458;2023-08-07T09:01:47;0.50;;;0.10;;
69310;SDS011;56430;48.154;16.458;2023-08-07T09:04:14;0.63;;;0.10;;
69310;SDS011;56430;48.154;16.458;2023-08-07T09:06:43;0.80;;;0.10;;
69310;SDS011;56430;48.154;16.458;2023-08-07T09:09:10;4.03;;;0.10;;
69310;SDS011;56430;48.154;16.458;2023-08-07T09:11:38;1.52;;;0.10;;
69310;SDS011;56430;48.154;16.458;2023-08-07T09:14:06;0.60;;;0.03;;
69310;SDS011;56430;48.154;16.458;2023-08-07T09:16:34;3.17;;;0.10;;
69310;SDS011;56430;48.154;16.458;2023-08-07T09:19:02;0.77;;;0.10;;
69310;SDS011;56430;48.154;16.458;2023-08-07T09:21:29;0.90;;;0.22;;
69310;SDS011;56430;48.154;16.458;2023-08-07T09:23:57;2.58;;;0.10;;
69310;SDS011;56430;48.154;16.458;2023-08-07T09:26:24;1.00;;;0.10;;
69310;SDS011;56430;48.154;16.458;2023-08-07T09:28:51;0.75;;;0.10;;
69310;SDS011;56430;48.154;16.458;2023-08-07T09:31:18;0.60;;;0.00;;
69310;SDS011;56430;48.154;16.458;2023-08-07T09:33:46;1.00;;;0.10;;
69310;SDS011;56430;48.154;16.458;2023-08-07T09:36:13;0.50;;;0.10;;
69310;SDS011;56430;48.154;16.458;2023-08-07T09:38:40;0.83;;;0.10;;
69310;SDS011;56430;48.154;16.458;2023-08-07T09:41:08;0.70;;;0.10;;
69310;SDS011;56430;48.154;16.458;2023-08-07T09:43:35;4.40;;;0.32;;
69310;SDS011;56430;48.154;16.458;2023-08-07T09:46:03;0.77;;;0.10;;
69310;SDS011;56430;48.154;16.458;2023-08-07T09:48:30;1.33;;;0.10;;
69310;SDS011;56430;48.154;16.458;2023-08-07T09:51:00;1.63;;;0.10;;
69310;SDS011;56430;48.154;16.458;2023-08-07T09:53:27;2.80;;;0.15;;
69310;SDS011;56430;48.154;16.458;2023-08-07T09:55:54;1.20;;;0.13;;
69310;SDS011;56430;48.154;16.458;2023-08-07T09:58:23;1.20;;;0.20;;
69310;SDS011;56430;48.154;16.458;2023-08-07T10:00:50;1.88;;;0.10;;
69310;SDS011;56430;48.154;16.458;2023-08-07T10:03:19;1.07;;;0.10;;
69310;SDS011;56430;48.154;16.458;2023-08-07T10:05:46;0.80;;;0.10;;
69310;SDS011;56430;48.154;16.458;2023-08-07T10:08:13;1.15;;;0.10;;
69310;SDS011;56430;48.154;16.458;2023-08-07T10:10:40;1.45;;;0.17;;
69310;SDS011;56430;48.154;16.458;2023-08-07T10:13:07;1.23;;;0.10;;
69310;SDS011;56430;48.154;16.458;2023-08-07T10:15:35;0.83;;;0.00;;
69310;SDS011;56430;48.154;16.458;2023-08-07T10:18:02;0.90;;;0.10;;
69310;SDS011;56430;48.154;16.458;2023-08-07T10:20:29;2.80;;;0.30;;
69310;SDS011;56430;48.154;16.458;2023-08-07T10:22:57;1.30;;;0.10;;
69310;SDS011;56430;48.154;16.458;2023-08-07T10:25:24;1.40;;;0.17;;
69310;SDS011;56430;48.154;16.458;2023-08-07T10:27:52;0.90;;;0.10;;
69310;SDS011;56430;48.154;16.458;2023-08-07T10:30:20;0.95;;;0.20;;
69310;SDS011;56430;48.154;16.458;2023-08-07T10:32:49;0.90;;;0.10;;
69310;SDS011;56430;48.154;16.458;2023-08-07T10:35:25;1.25;;;0.20;;
69310;SDS011;56430;48.154;16.458;2023-08-07T10:37:52;0.80;;;0.10;;
69310;SDS011;56430;48.154;16.458;2023-08-07T10:40:19;1.37;;;0.10;;
69310;SDS011;56430;48.154;16.458;2023-08-07T10:42:52;1.58;;;0.10;;
69310;SDS011;56430;48.154;16.458;2023-08-07T10:45:18;1.00;;;0.15;;
69310;SDS011;56430;48.154;16.458;2023-08-07T10:47:57;1.00;;;0.10;;
69310;SDS011;56430;48.154;16.458;2023-08-07T10:50:28;1.00;;;0.10;;
69310;SDS011;56430;48.154;16.458;2023-08-07T10:52:55;0.80;;;0.10;;
69310;SDS011;56430;48.154;16.458;2023-08-07T10:55:22;0.80;;;0.10;;
69310;SDS011;56430;48.154;16.458;2023-08-07T10:57:51;2.08;;;0.10;;
69310;SDS011;56430;48.154;16.458;2023-08-07T11:00:20;1.88;;;0.20;;
69310;SDS011;56430;48.154;16.458;2023-08-07T11:02:48;0.90;;;0.10;;
69310;SDS011;56430;48.154;16.458;2023-08-07T11:05:18;1.00;;;0.10;;
69310;SDS011;56430;48.154;16.458;2023-08-07T11:07:45;2.45;;;0.20;;
69310;SDS011;56430;48.154;16.458;2023-08-07T11:10:13;1.40;;;0.20;;
69310;SDS011;56430;48.154;16.458;2023-08-07T11:12:40;1.08;;;0.10;;
69310;SDS011;56430;48.154;16.458;2023-08-07T11:15:11;0.95;;;0.10;;
69310;SDS011;56430;48.154;16.458;2023-08-07T11:17:38;0.40;;;0.00;;
69310;SDS011;56430;48.154;16.458;2023-08-07T11:20:07;2.20;;;0.13;;
69310;SDS011;56430;48.154;16.458;2023-08-07T11:22:39;1.20;;;0.20;;
69310;SDS011;56430;48.154;16.458;2023-08-07T11:25:07;1.20;;;0.10;;
69310;SDS011;56430;48.154;16.458;2023-08-07T11:27:39;1.52;;;0.10;;
69310;SDS011;56430;48.154;16.458;2023-08-07T11:30:06;1.17;;;0.13;;
69310;SDS011;56430;48.154;16.458;2023-08-07T11:32:37;1.15;;;0.20;;
69310;SDS011;56430;48.154;16.458;2023-08-07T11:35:04;1.27;;;0.20;;
69310;SDS011;56430;48.154;16.458;2023-08-07T11:37:32;1.13;;;0.17;;
69310;SDS011;56430;48.154;16.458;2023-08-07T11:40:01;1.85;;;0.10;;
69310;SDS011;56430;48.154;16.458;2023-08-07T11:42:28;4.40;;;0.30;;
69310;SDS011;56430;48.154;16.458;2023-08-07T11:44:55;2.47;;;0.20;;
69310;SDS011;56430;48.154;16.458;2023-08-07T11:47:22;1.38;;;0.10;;
69310;SDS011;56430;48.154;16.458;2023-08-07T11:49:49;0.95;;;0.10;;
69310;SDS011;56430;48.154;16.458;2023-08-07T11:52:18;1.50;;;0.17;;
69310;SDS011;56430;48.154;16.458;2023-08-07T11:54:46;0.80;;;0.10;;
69310;SDS011;56430;48.154;16.458;2023-08-07T11:57:19;1.98;;;0.20;;
69310;SDS011;56430;48.154;16.458;2023-08-07T11:59:49;2.63;;;0.20;;
69310;SDS011;56430;48.154;16.458;2023-08-07T12:02:16;1.10;;;0.10;;
69310;SDS011;56430;48.154;16.458;2023-08-07T12:04:43;1.30;;;0.10;;
69310;SDS011;56430;48.154;16.458;2023-08-07T12:07:10;0.80;;;0.10;;
69310;SDS011;56430;48.154;16.458;2023-08-07T12:09:39;1.70;;;0.20;;
69310;SDS011;56430;48.154;16.458;2023-08-07T12:12:06;1.33;;;0.10;;
69310;SDS011;56430;48.154;16.458;2023-08-07T12:14:35;0.88;;;0.10;;
69310;SDS011;56430;48.154;16.458;2023-08-07T12:17:02;1.10;;;0.20;;
69310;SDS011;56430;48.154;16.458;2023-08-07T12:19:35;1.27;;;0.10;;
69310;SDS011;56430;48.154;16.458;2023-08-07T12:22:02;1.50;;;0.20;;
69310;SDS011;56430;48.154;16.458;2023-08-07T12:24:29;1.15;;;0.13;;
69310;SDS011;56430;48.154;16.458;2023-08-07T12:26:56;0.93;;;0.13;;
69310;SDS011;56430;48.154;16.458;2023-08-07T12:29:23;1.33;;;0.20;;
69310;SDS011;56430;48.154;16.458;2023-08-07T12:31:55;1.10;;;0.20;;
69310;SDS011;56430;48.154;16.458;2023-08-07T12:34:24;0.80;;;0.10;;
69310;SDS011;56430;48.154;16.458;2023-08-07T12:36:51;1.23;;;0.17;;
69310;SDS011;56430;48.154;16.458;2023-08-07T12:39:18;1.48;;;0.17;;
69310;SDS011;56430;48.154;16.458;2023-08-07T12:41:44;1.40;;;0.20;;
69310;SDS011;56430;48.154;16.458;2023-08-07T12:44:11;1.83;;;0.20;;
69310;SDS011;56430;48.154;16.458;2023-08-07T12:46:39;1.58;;;0.20;;
69310;SDS011;56430;48.154;16.458;2023-08-07T12:49:09;1.90;;;0.20;;
69310;SDS011;56430;48.154;16.458;2023-08-07T12:51:36;1.45;;;0.20;;
69310;SDS011;56430;48.154;16.458;2023-08-07T12:54:03;1.10;;;0.20;;
69310;SDS011;56430;48.154;16.458;2023-08-07T12:56:30;1.67;;;0.20;;
69310;SDS011;56430;48.154;16.458;2023-08-07T12:58:56;1.38;;;0.30;;
69310;SDS011;56430;48.154;16.458;2023-08-07T13:01:23;2.03;;;0.28;;
69310;SDS011;56430;48.154;16.458;2023-08-07T13:03:51;4.70;;;0.30;;
69310;SDS011;56430;48.154;16.458;2023-08-07T13:06:19;1.40;;;0.30;;
69310;SDS011;56430;48.154;16.458;2023-08-07T13:08:46;2.50;;;0.50;;
69310;SDS011;56430;48.154;16.458;2023-08-07T13:11:12;1.10;;;0.10;;
69310;SDS011;56430;48.154;16.458;2023-08-07T13:13:40;2.88;;;0.30;;
69310;SDS011;56430;48.154;16.458;2023-08-07T13:16:07;1.40;;;0.20;;
69310;SDS011;56430;48.154;16.458;2023-08-07T13:18:33;1.77;;;0.30;;
69310;SDS011;56430;48.154;16.458;2023-08-07T13:21:00;1.60;;;0.30;;
69310;SDS011;56430;48.154;16.458;2023-08-07T13:23:29;1.75;;;0.20;;
69310;SDS011;56430;48.154;16.458;2023-08-07T13:25:56;3.50;;;0.40;;
69310;SDS011;56430;48.154;16.458;2023-08-07T13:28:22;2.70;;;0.30;;
69310;SDS011;56430;48.154;16.458;2023-08-07T13:30:49;1.52;;;0.32;;
69310;SDS011;56430;48.154;16.458;2023-08-07T13:33:17;2.00;;;0.40;;
69310;SDS011;56430;48.154;16.458;2023-08-07T13:35:45;1.40;;;0.30;;
69310;SDS011;56430;48.154;16.458;2023-08-07T13:38:12;2.40;;;0.40;;
69310;SDS011;56430;48.154;16.458;2023-08-07T13:40:42;1.05;;;0.10;;
69310;SDS011;56430;48.154;16.458;2023-08-07T13:43:10;1.73;;;0.50;;
69310;SDS011;56430;48.154;16.458;2023-08-07T13:45:37;2.43;;;0.30;;
69310;SDS011;56430;48.154;16.458;2023-08-07T13:48:05;1.42;;;0.30;;
69310;SDS011;56430;48.154;16.458;2023-08-07T13:50:35;1.88;;;0.40;;
69310;SDS011;56430;48.154;16.458;2023-08-07T13:53:04;1.40;;;0.30;;
69310;SDS011;56430;48.154;16.458;2023-08-07T13:55:32;2.70;;;0.40;;
69310;SDS011;56430;48.154;16.458;2023-08-07T13:58:02;1.43;;;0.40;;
69310;SDS011;56430;48.154;16.458;2023-08-07T14:00:31;2.58;;;0.30;;
69310;SDS011;56430;48.154;16.458;2023-08-07T14:03:00;1.20;;;0.22;;
69310;SDS011;56430;48.154;16.458;2023-08-07T14:05:28;2.33;;;0.30;;
69310;SDS011;56430;48.154;16.458;2023-08-07T14:07:56;1.75;;;0.30;;
69310;SDS011;56430;48.154;16.458;2023-08-07T14:10:25;1.70;;;0.30;;
69310;SDS011;56430;48.154;16.458;2023-08-07T14:12:53;2.35;;;0.30;;
69310;SDS011;56430;48.154;16.458;2023-08-07T14:15:26;1.85;;;0.50;;
69310;SDS011;56430;48.154;16.458;2023-08-07T14:17:54;1.60;;;0.28;;
69310;SDS011;56430;48.154;16.458;2023-08-07T14:20:22;1.27;;;0.22;;
69310;SDS011;56430;48.154;16.458;2023-08-07T14:22:49;1.40;;;0.30;;
69310;SDS011;56430;48.154;16.458;2023-08-07T14:25:16;1.58;;;0.30;;
69310;SDS011;56430;48.154;16.458;2023-08-07T14:27:43;1.60;;;0.40;;
69310;SDS011;56430;48.154;16.458;2023-08-07T14:30:11;1.30;;;0.30;;
69310;SDS011;56430;48.154;16.458;2023-08-07T14:32:39;4.35;;;0.40;;
69310;SDS011;56430;48.154;16.458;2023-08-07T14:35:07;1.70;;;0.30;;